sensor_id;sensor_type;location;lat;lon;timestamp;pressure;altitude;pressure_sealevel;temperature;humidity
35647;BME280;28680;45.642;13.756;2023-04-26T00:00:25;100961.75;;;10.70;100.00
35647;BME280;28680;45.642;13.756;2023-04-26T00:02:53;100962.78;;;10.68;100.00
35647;BME280;28680;45.642;13.756;2023-04-26T00:05:20;100967.91;;;10.58;100.00
35647;BME280;28680;45.642;13.756;2023-04-26T00:07:46;100964.66;;;10.54;100.00
35647;BME280;28680;45.642;13.756;2023-04-26T00:10:12;100967.28;;;10.54;100.00
35647;BME280;28680;45.642;13.756;2023-04-26T00:12:38;100969.69;;;10.58;100.00
35647;BME280;28680;45.642;13.756;2023-04-26T00:15:06;100971.59;;;10.56;100.00
35647;BME280;28680;45.642;13.756;2023-04-26T00:17:33;100963.09;;;10.52;100.00
35647;BME280;28680;45.642;13.756;2023-04-26T00:19:58;100971.34;;;10.47;100.00
35647;BME280;28680;45.642;13.756;2023-04-26T00:22:25;100972.16;;;10.48;100.00
35647;BME280;28680;45.642;13.756;2023-04-26T00:24:51;100962.84;;;10.44;100.00
35647;BME280;28680;45.642;13.756;2023-04-26T00:27:17;100973.56;;;10.41;100.00
35647;BME280;28680;45.642;13.756;2023-04-26T00:29:43;100973.41;;;10.31;100.00
35647;BME280;28680;45.642;13.756;2023-04-26T00:32:08;100969.06;;;10.30;100.00
35647;BME280;28680;45.642;13.756;2023-04-26T00:34:37;100971.78;;;10.41;100.00
35647;BME280;28680;45.642;13.756;2023-04-26T00:37:04;100972.84;;;10.39;100.00
35647;BME280;28680;45.642;13.756;2023-04-26T00:39:30;100971.28;;;10.36;100.00
35647;BME280;28680;45.642;13.756;2023-04-26T00:41:57;100976.41;;;10.38;100.00
35647;BME280;28680;45.642;13.756;2023-04-26T00:44:23;100974.13;;;10.33;100.00
35647;BME280;28680;45.642;13.756;2023-04-26T00:46:52;100985.69;;;10.30;100.00
35647;BME280;28680;45.642;13.756;2023-04-26T00:49:20;100986.81;;;10.26;100.00
35647;BME280;28680;45.642;13.756;2023-04-26T00:51:47;100996.81;;;10.34;100.00
35647;BME280;28680;45.642;13.756;2023-04-26T00:54:14;100987.19;;;10.46;100.00
35647;BME280;28680;45.642;13.756;2023-04-26T00:56:41;100984.94;;;10.52;100.00
35647;BME280;28680;45.642;13.756;2023-04-26T00:59:08;100975.28;;;10.53;100.00
35647;BME280;28680;45.642;13.756;2023-04-26T01:01:37;100982.56;;;10.49;100.00
35647;BME280;28680;45.642;13.756;2023-04-26T01:04:03;100987.03;;;10.36;100.00
35647;BME280;28680;45.642;13.756;2023-04-26T01:06:34;100987.44;;;10.30;100.00
35647;BME280;28680;45.642;13.756;2023-04-26T01:09:04;100982.13;;;10.19;100.00
35647;BME280;28680;45.642;13.756;2023-04-26T01:11:35;100983.09;;;10.18;100.00
35647;BME280;28680;45.642;13.756;2023-04-26T01:14:02;100990.63;;;10.22;100.00
35647;BME280;28680;45.642;13.756;2023-04-26T01:16:29;100996.59;;;10.24;100.00
35647;BME280;28680;45.642;13.756;2023-04-26T01:18:55;101000.50;;;10.19;100.00
35647;BME280;28680;45.642;13.756;2023-04-26T01:21:23;100996.41;;;10.14;100.00
35647;BME280;28680;45.642;13.756;2023-04-26T01:23:50;100999.38;;;10.10;100.00
35647;BME280;28680;45.642;13.756;2023-04-26T01:26:18;101000.00;;;10.13;100.00
35647;BME280;28680;45.642;13.756;2023-04-26T01:28:44;100995.81;;;10.11;100.00
35647;BME280;28680;45.642;13.756;2023-04-26T01:31:14;100999.50;;;10.08;100.00
35647;BME280;28680;45.642;13.756;2023-04-26T01:33:40;100996.34;;;10.03;100.00
35647;BME280;28680;45.642;13.756;2023-04-26T01:36:09;100994.81;;;10.01;100.00
35647;BME280;28680;45.642;13.756;2023-04-26T01:38:36;101000.78;;;10.03;100.00
35647;BME280;28680;45.642;13.756;2023-04-26T01:41:02;101004.94;;;10.05;100.00
35647;BME280;28680;45.642;13.756;2023-04-26T01:43:28;101005.56;;;10.09;100.00
35647;BME280;28680;45.642;13.756;2023-04-26T01:45:54;101002.56;;;10.02;100.00
35647;BME280;28680;45.642;13.756;2023-04-26T01:48:20;100990.50;;;10.00;100.00
35647;BME280;28680;45.642;13.756;2023-04-26T01:50:46;100995.97;;;9.97;100.00
35647;BME280;28680;45.642;13.756;2023-04-26T01:53:12;100995.13;;;9.96;100.00
35647;BME280;28680;45.642;13.756;2023-04-26T01:55:38;100990.63;;;9.98;100.00
35647;BME280;28680;45.642;13.756;2023-04-26T01:58:04;100991.34;;;10.00;100.00
35647;BME280;28680;45.642;13.756;2023-04-26T02:00:30;101001.53;;;9.92;100.00
35647;BME280;28680;45.642;13.756;2023-04-26T02:02:56;100989.78;;;9.85;100.00
35647;BME280;28680;45.642;13.756;2023-04-26T02:05:23;100990.09;;;9.93;100.00
35647;BME280;28680;45.642;13.756;2023-04-26T02:07:49;100987.88;;;10.00;100.00
35647;BME280;28680;45.642;13.756;2023-04-26T02:10:16;100975.28;;;10.05;100.00
35647;BME280;28680;45.642;13.756;2023-04-26T02:12:42;100980.31;;;10.08;100.00
35647;BME280;28680;45.642;13.756;2023-04-26T02:15:08;100974.97;;;10.21;100.00
35647;BME280;28680;45.642;13.756;2023-04-26T02:17:34;100972.66;;;10.29;100.00
35647;BME280;28680;45.642;13.756;2023-04-26T02:20:03;100977.19;;;10.27;100.00
35647;BME280;28680;45.642;13.756;2023-04-26T02:22:29;100978.69;;;10.18;100.00
35647;BME280;28680;45.642;13.756;2023-04-26T02:24:55;100981.47;;;10.04;100.00
35647;BME280;28680;45.642;13.756;2023-04-26T02:27:21;100982.13;;;9.94;100.00
35647;BME280;28680;45.642;13.756;2023-04-26T02:29:47;100984.09;;;10.04;100.00
35647;BME280;28680;45.642;13.756;2023-04-26T02:32:13;100994.97;;;10.10;100.00
35647;BME280;28680;45.642;13.756;2023-04-26T02:34:39;100988.59;;;10.02;100.00
35647;BME280;28680;45.642;13.756;2023-04-26T02:37:05;100991.66;;;9.95;100.00
35647;BME280;28680;45.642;13.756;2023-04-26T02:39:32;100988.31;;;9.93;100.00
35647;BME280;28680;45.642;13.756;2023-04-26T02:41:58;100987.72;;;10.14;100.00
35647;BME280;28680;45.642;13.756;2023-04-26T02:44:24;100977.69;;;10.32;100.00
35647;BME280;28680;45.642;13.756;2023-04-26T02:46:50;100986.44;;;10.20;100.00
35647;BME280;28680;45.642;13.756;2023-04-26T02:49:16;100984.13;;;10.15;100.00
35647;BME280;28680;45.642;13.756;2023-04-26T02:51:42;100986.03;;;10.13;100.00
35647;BME280;28680;45.642;13.756;2023-04-26T02:54:08;100987.81;;;10.12;100.00
35647;BME280;28680;45.642;13.756;2023-04-26T02:56:33;100979.44;;;10.07;100.00
35647;BME280;28680;45.642;13.756;2023-04-26T02:58:59;100981.69;;;10.01;100.00
35647;BME280;28680;45.642;13.756;2023-04-26T03:01:26;100992.06;;;10.02;100.00
35647;BME280;28680;45.642;13.756;2023-04-26T03:03:53;100990.28;;;10.03;100.00
35647;BME280;28680;45.642;13.756;2023-04-26T03:06:19;100985.56;;;10.08;100.00
35647;BME280;28680;45.642;13.756;2023-04-26T03:08:45;100986.38;;;10.08;100.00
35647;BME280;28680;45.642;13.756;2023-04-26T03:11:11;100987.38;;;10.19;100.00
35647;BME280;28680;45.642;13.756;2023-04-26T03:13:36;100991.84;;;10.05;100.00
35647;BME280;28680;45.642;13.756;2023-04-26T03:16:02;101003.22;;;9.93;100.00
35647;BME280;28680;45.642;13.756;2023-04-26T03:18:28;101000.50;;;9.94;100.00
35647;BME280;28680;45.642;13.756;2023-04-26T03:20:54;100992.84;;;9.91;100.00
35647;BME280;28680;45.642;13.756;2023-04-26T03:23:21;100994.09;;;9.86;100.00
35647;BME280;28680;45.642;13.756;2023-04-26T03:25:50;100990.13;;;9.80;100.00
35647;BME280;28680;45.642;13.756;2023-04-26T03:28:16;100989.22;;;9.81;100.00
35647;BME280;28680;45.642;13.756;2023-04-26T03:30:42;100989.63;;;9.75;100.00
35647;BME280;28680;45.642;13.756;2023-04-26T03:33:08;100988.78;;;9.74;100.00
35647;BME280;28680;45.642;13.756;2023-04-26T03:35:34;100982.31;;;10.04;100.00
35647;BME280;28680;45.642;13.756;2023-04-26T03:38:00;100990.00;;;9.94;100.00
35647;BME280;28680;45.642;13.756;2023-04-26T03:40:26;100996.94;;;9.83;100.00
35647;BME280;28680;45.642;13.756;2023-04-26T03:42:52;100988.34;;;9.81;100.00
35647;BME280;28680;45.642;13.756;2023-04-26T03:45:18;100997.63;;;9.98;100.00
35647;BME280;28680;45.642;13.756;2023-04-26T03:47:43;100993.25;;;9.98;100.00
35647;BME280;28680;45.642;13.756;2023-04-26T03:50:09;100998.34;;;10.00;100.00
35647;BME280;28680;45.642;13.756;2023-04-26T03:52:35;101000.72;;;10.15;100.00
35647;BME280;28680;45.642;13.756;2023-04-26T03:55:01;100999.44;;;10.21;100.00
35647;BME280;28680;45.642;13.756;2023-04-26T03:57:28;101001.03;;;10.11;100.00
35647;BME280;28680;45.642;13.756;2023-04-26T03:59:54;100997.81;;;10.07;100.00
35647;BME280;28680;45.642;13.756;2023-04-26T04:02:20;101002.78;;;9.99;100.00
35647;BME280;28680;45.642;13.756;2023-04-26T04:04:47;101009.78;;;10.11;100.00
35647;BME280;28680;45.642;13.756;2023-04-26T04:07:13;101013.44;;;10.09;100.00
35647;BME280;28680;45.642;13.756;2023-04-26T04:09:38;101010.72;;;10.10;100.00
35647;BME280;28680;45.642;13.756;2023-04-26T04:12:04;101006.19;;;10.12;100.00
35647;BME280;28680;45.642;13.756;2023-04-26T04:14:30;101009.69;;;10.24;100.00
35647;BME280;28680;45.642;13.756;2023-04-26T04:16:56;101006.97;;;10.26;100.00
35647;BME280;28680;45.642;13.756;2023-04-26T04:19:24;101001.47;;;10.18;100.00
35647;BME280;28680;45.642;13.756;2023-04-26T04:21:50;101007.53;;;10.18;100.00
35647;BME280;28680;45.642;13.756;2023-04-26T04:24:16;101004.00;;;10.06;100.00
35647;BME280;28680;45.642;13.756;2023-04-26T04:26:42;100998.25;;;10.01;100.00
35647;BME280;28680;45.642;13.756;2023-04-26T04:29:08;100997.75;;;9.96;100.00
35647;BME280;28680;45.642;13.756;2023-04-26T04:31:37;100998.69;;;9.95;100.00
35647;BME280;28680;45.642;13.756;2023-04-26T04:34:04;100999.84;;;10.04;100.00
35647;BME280;28680;45.642;13.756;2023-04-26T04:36:31;101005.41;;;9.99;100.00
35647;BME280;28680;45.642;13.756;2023-04-26T04:38:57;100999.44;;;9.97;100.00
35647;BME280;28680;45.642;13.756;2023-04-26T04:41:23;101000.97;;;10.00;100.00
35647;BME280;28680;45.642;13.756;2023-04-26T04:43:48;101008.19;;;10.09;100.00
35647;BME280;28680;45.642;13.756;2023-04-26T04:46:14;101009.63;;;10.13;100.00
35647;BME280;28680;45.642;13.756;2023-04-26T04:48:41;101001.00;;;10.24;100.00
35647;BME280;28680;45.642;13.756;2023-04-26T04:51:07;101004.34;;;10.26;100.00
35647;BME280;28680;45.642;13.756;2023-04-26T04:53:33;101002.50;;;10.15;100.00
35647;BME280;28680;45.642;13.756;2023-04-26T04:55:59;101007.22;;;10.23;100.00
35647;BME280;28680;45.642;13.756;2023-04-26T04:58:26;101012.66;;;10.20;100.00
35647;BME280;28680;45.642;13.756;2023-04-26T05:00:52;101014.63;;;10.29;100.00
35647;BME280;28680;45.642;13.756;2023-04-26T05:03:21;101019.56;;;10.33;100.00
35647;BME280;28680;45.642;13.756;2023-04-26T05:05:47;101024.25;;;10.41;100.00
35647;BME280;28680;45.642;13.756;2023-04-26T05:08:13;101022.66;;;10.51;100.00
35647;BME280;28680;45.642;13.756;2023-04-26T05:10:38;101020.84;;;10.52;100.00
35647;BME280;28680;45.642;13.756;2023-04-26T05:13:04;101024.91;;;10.56;100.00
35647;BME280;28680;45.642;13.756;2023-04-26T05:15:30;101028.25;;;10.58;100.00
35647;BME280;28680;45.642;13.756;2023-04-26T05:17:56;101032.34;;;10.62;100.00
35647;BME280;28680;45.642;13.756;2023-04-26T05:20:24;101036.66;;;10.63;100.00
35647;BME280;28680;45.642;13.756;2023-04-26T05:22:50;101037.38;;;10.65;100.00
35647;BME280;28680;45.642;13.756;2023-04-26T05:25:16;101044.34;;;10.78;100.00
35647;BME280;28680;45.642;13.756;2023-04-26T05:27:42;101044.59;;;10.86;100.00
35647;BME280;28680;45.642;13.756;2023-04-26T05:30:10;101043.81;;;10.97;100.00
35647;BME280;28680;45.642;13.756;2023-04-26T05:32:36;101050.72;;;10.98;100.00
35647;BME280;28680;45.642;13.756;2023-04-26T05:35:06;101048.81;;;11.00;100.00
35647;BME280;28680;45.642;13.756;2023-04-26T05:37:31;101064.81;;;10.97;100.00
35647;BME280;28680;45.642;13.756;2023-04-26T05:39:57;101067.91;;;11.02;100.00
35647;BME280;28680;45.642;13.756;2023-04-26T05:42:23;101074.16;;;11.12;100.00
35647;BME280;28680;45.642;13.756;2023-04-26T05:44:49;101074.16;;;11.12;100.00
35647;BME280;28680;45.642;13.756;2023-04-26T05:47:15;101092.63;;;10.99;100.00
35647;BME280;28680;45.642;13.756;2023-04-26T05:49:41;101090.69;;;10.90;100.00
35647;BME280;28680;45.642;13.756;2023-04-26T05:52:07;101101.81;;;10.93;100.00
35647;BME280;28680;45.642;13.756;2023-04-26T05:54:32;101102.31;;;10.99;100.00
35647;BME280;28680;45.642;13.756;2023-04-26T05:56:58;101109.84;;;11.03;100.00
35647;BME280;28680;45.642;13.756;2023-04-26T05:59:24;101116.19;;;11.12;100.00
35647;BME280;28680;45.642;13.756;2023-04-26T06:01:50;101114.28;;;11.14;100.00
35647;BME280;28680;45.642;13.756;2023-04-26T06:04:16;101117.53;;;11.18;100.00
35647;BME280;28680;45.642;13.756;2023-04-26T06:06:42;101128.03;;;11.18;100.00
35647;BME280;28680;45.642;13.756;2023-04-26T06:09:07;101129.59;;;11.20;100.00
35647;BME280;28680;45.642;13.756;2023-04-26T06:11:34;101121.13;;;11.28;100.00
35647;BME280;28680;45.642;13.756;2023-04-26T06:14:00;101121.53;;;11.35;100.00
35647;BME280;28680;45.642;13.756;2023-04-26T06:16:26;101110.78;;;11.49;100.00
35647;BME280;28680;45.642;13.756;2023-04-26T06:18:52;101109.13;;;11.48;100.00
35647;BME280;28680;45.642;13.756;2023-04-26T06:21:17;101109.72;;;11.51;100.00
35647;BME280;28680;45.642;13.756;2023-04-26T06:23:43;101104.00;;;11.58;100.00
35647;BME280;28680;45.642;13.756;2023-04-26T06:26:09;101101.16;;;11.72;100.00
35647;BME280;28680;45.642;13.756;2023-04-26T06:28:35;101099.59;;;11.69;100.00
35647;BME280;28680;45.642;13.756;2023-04-26T06:31:01;101095.75;;;11.74;100.00
35647;BME280;28680;45.642;13.756;2023-04-26T06:33:26;101081.44;;;11.89;100.00
35647;BME280;28680;45.642;13.756;2023-04-26T06:35:52;101091.38;;;12.08;100.00
35647;BME280;28680;45.642;13.756;2023-04-26T06:38:18;101096.31;;;12.45;100.00
35647;BME280;28680;45.642;13.756;2023-04-26T06:40:44;101096.56;;;12.42;100.00
35647;BME280;28680;45.642;13.756;2023-04-26T06:43:10;101101.50;;;12.24;100.00
35647;BME280;28680;45.642;13.756;2023-04-26T06:45:36;101102.34;;;12.24;100.00
35647;BME280;28680;45.642;13.756;2023-04-26T06:48:02;101101.13;;;12.28;100.00
35647;BME280;28680;45.642;13.756;2023-04-26T06:50:29;101115.44;;;12.58;100.00
35647;BME280;28680;45.642;13.756;2023-04-26T06:52:55;101115.75;;;12.76;100.00
35647;BME280;28680;45.642;13.756;2023-04-26T06:55:21;101125.53;;;12.85;100.00
35647;BME280;28680;45.642;13.756;2023-04-26T06:57:48;101129.06;;;12.96;100.00
35647;BME280;28680;45.642;13.756;2023-04-26T07:00:15;101127.03;;;12.99;100.00
35647;BME280;28680;45.642;13.756;2023-04-26T07:02:42;101125.28;;;13.10;100.00
35647;BME280;28680;45.642;13.756;2023-04-26T07:05:08;101124.00;;;13.04;100.00
35647;BME280;28680;45.642;13.756;2023-04-26T07:07:34;101133.19;;;13.42;100.00
35647;BME280;28680;45.642;13.756;2023-04-26T07:10:00;101134.47;;;13.69;100.00
35647;BME280;28680;45.642;13.756;2023-04-26T07:12:26;101138.97;;;14.09;100.00
35647;BME280;28680;45.642;13.756;2023-04-26T07:14:52;101134.44;;;14.30;100.00
35647;BME280;28680;45.642;13.756;2023-04-26T07:17:18;101143.84;;;14.64;100.00
35647;BME280;28680;45.642;13.756;2023-04-26T07:20:00;101150.53;;;14.87;100.00
35647;BME280;28680;45.642;13.756;2023-04-26T07:23:04;101147.50;;;15.01;100.00
35647;BME280;28680;45.642;13.756;2023-04-26T07:25:39;101146.38;;;14.94;100.00
35647;BME280;28680;45.642;13.756;2023-04-26T07:28:10;101143.47;;;14.88;100.00
35647;BME280;28680;45.642;13.756;2023-04-26T07:30:40;101145.56;;;14.94;100.00
35647;BME280;28680;45.642;13.756;2023-04-26T07:33:18;101149.84;;;15.05;100.00
35647;BME280;28680;45.642;13.756;2023-04-26T07:35:44;101144.28;;;14.78;100.00
35647;BME280;28680;45.642;13.756;2023-04-26T07:38:38;101138.34;;;14.46;100.00
35647;BME280;28680;45.642;13.756;2023-04-26T07:41:13;101150.97;;;14.82;100.00
35647;BME280;28680;45.642;13.756;2023-04-26T07:43:44;101146.78;;;14.80;100.00
35647;BME280;28680;45.642;13.756;2023-04-26T07:46:13;101154.75;;;14.90;100.00
35647;BME280;28680;45.642;13.756;2023-04-26T07:48:50;101148.72;;;14.78;100.00
35647;BME280;28680;45.642;13.756;2023-04-26T07:51:24;101153.47;;;14.84;100.00
35647;BME280;28680;45.642;13.756;2023-04-26T07:53:57;101163.06;;;15.05;100.00
35647;BME280;28680;45.642;13.756;2023-04-26T07:56:23;101158.06;;;15.11;100.00
35647;BME280;28680;45.642;13.756;2023-04-26T07:58:50;101164.31;;;14.91;100.00
35647;BME280;28680;45.642;13.756;2023-04-26T08:01:16;101166.97;;;14.81;100.00
35647;BME280;28680;45.642;13.756;2023-04-26T08:03:42;101168.78;;;14.90;100.00
35647;BME280;28680;45.642;13.756;2023-04-26T08:06:08;101174.34;;;15.26;100.00
35647;BME280;28680;45.642;13.756;2023-04-26T08:08:39;101167.13;;;15.09;100.00
35647;BME280;28680;45.642;13.756;2023-04-26T08:11:09;101176.56;;;15.21;100.00
35647;BME280;28680;45.642;13.756;2023-04-26T08:13:37;101179.38;;;15.29;100.00
35647;BME280;28680;45.642;13.756;2023-04-26T08:18:33;101178.09;;;15.14;100.00
35647;BME280;28680;45.642;13.756;2023-04-26T08:21:37;101194.25;;;15.40;100.00
35647;BME280;28680;45.642;13.756;2023-04-26T08:24:57;101188.63;;;15.72;100.00
35647;BME280;28680;45.642;13.756;2023-04-26T08:28:04;101176.25;;;15.53;100.00
35647;BME280;28680;45.642;13.756;2023-04-26T08:30:34;101186.69;;;15.65;100.00
35647;BME280;28680;45.642;13.756;2023-04-26T08:40:23;101194.97;;;16.36;100.00
35647;BME280;28680;45.642;13.756;2023-04-26T08:43:03;101188.31;;;16.32;100.00
35647;BME280;28680;45.642;13.756;2023-04-26T08:45:47;101195.91;;;16.45;100.00
35647;BME280;28680;45.642;13.756;2023-04-26T08:49:08;101203.59;;;16.48;100.00
35647;BME280;28680;45.642;13.756;2023-04-26T08:52:05;101204.50;;;16.57;100.00
35647;BME280;28680;45.642;13.756;2023-04-26T08:58:28;101196.88;;;16.72;100.00
35647;BME280;28680;45.642;13.756;2023-04-26T09:01:04;101208.75;;;16.95;100.00
35647;BME280;28680;45.642;13.756;2023-04-26T09:06:06;101214.75;;;17.15;100.00
35647;BME280;28680;45.642;13.756;2023-04-26T09:08:43;101207.31;;;17.19;100.00
35647;BME280;28680;45.642;13.756;2023-04-26T09:14:28;101207.16;;;17.39;100.00
35647;BME280;28680;45.642;13.756;2023-04-26T09:16:57;101215.72;;;17.50;100.00
35647;BME280;28680;45.642;13.756;2023-04-26T09:26:33;101220.19;;;17.94;100.00
35647;BME280;28680;45.642;13.756;2023-04-26T09:34:59;101220.94;;;18.12;100.00
35647;BME280;28680;45.642;13.756;2023-04-26T09:44:30;101202.16;;;18.40;100.00
35647;BME280;28680;45.642;13.756;2023-04-26T09:56:14;101205.69;;;19.00;100.00
35647;BME280;28680;45.642;13.756;2023-04-26T10:04:00;101202.19;;;19.24;100.00
35647;BME280;28680;45.642;13.756;2023-04-26T10:10:11;101196.88;;;19.81;100.00
35647;BME280;28680;45.642;13.756;2023-04-26T10:12:46;101200.75;;;20.18;100.00
35647;BME280;28680;45.642;13.756;2023-04-26T10:15:12;101204.28;;;20.19;100.00
35647;BME280;28680;45.642;13.756;2023-04-26T10:17:39;101199.13;;;20.49;94.18
35647;BME280;28680;45.642;13.756;2023-04-26T10:20:11;101204.22;;;20.27;100.00
35647;BME280;28680;45.642;13.756;2023-04-26T10:22:45;101201.28;;;20.05;100.00
35647;BME280;28680;45.642;13.756;2023-04-26T10:25:39;101195.78;;;20.07;100.00
35647;BME280;28680;45.642;13.756;2023-04-26T10:28:07;101193.28;;;20.14;100.00
35647;BME280;28680;45.642;13.756;2023-04-26T10:30:56;101195.91;;;20.22;100.00
35647;BME280;28680;45.642;13.756;2023-04-26T10:39:40;101194.00;;;21.25;71.01
35647;BME280;28680;45.642;13.756;2023-04-26T10:42:25;101200.28;;;21.55;71.19
35647;BME280;28680;45.642;13.756;2023-04-26T10:47:31;101199.66;;;21.68;79.68
35647;BME280;28680;45.642;13.756;2023-04-26T10:50:09;101201.81;;;22.32;77.85
35647;BME280;28680;45.642;13.756;2023-04-26T10:55:41;101197.88;;;23.01;84.75
35647;BME280;28680;45.642;13.756;2023-04-26T10:58:32;101206.63;;;22.73;100.00
35647;BME280;28680;45.642;13.756;2023-04-26T11:01:14;101203.19;;;22.79;100.00
35647;BME280;28680;45.642;13.756;2023-04-26T11:06:50;101198.44;;;22.96;100.00
35647;BME280;28680;45.642;13.756;2023-04-26T11:09:40;101194.53;;;22.98;100.00
35647;BME280;28680;45.642;13.756;2023-04-26T11:12:11;101187.72;;;22.96;100.00
35647;BME280;28680;45.642;13.756;2023-04-26T11:14:38;101198.59;;;22.94;100.00
35647;BME280;28680;45.642;13.756;2023-04-26T11:17:09;101194.75;;;22.97;100.00
35647;BME280;28680;45.642;13.756;2023-04-26T11:19:35;101190.63;;;22.80;100.00
35647;BME280;28680;45.642;13.756;2023-04-26T11:22:06;101188.50;;;23.11;100.00
35647;BME280;28680;45.642;13.756;2023-04-26T11:24:33;101193.78;;;23.26;100.00
35647;BME280;28680;45.642;13.756;2023-04-26T11:27:10;101189.84;;;23.22;100.00
35647;BME280;28680;45.642;13.756;2023-04-26T11:29:39;101193.47;;;23.36;100.00
35647;BME280;28680;45.642;13.756;2023-04-26T11:32:05;101181.34;;;23.40;100.00
35647;BME280;28680;45.642;13.756;2023-04-26T11:34:36;101195.69;;;23.32;100.00
35647;BME280;28680;45.642;13.756;2023-04-26T11:37:06;101193.09;;;23.67;100.00
35647;BME280;28680;45.642;13.756;2023-04-26T11:39:36;101199.78;;;23.50;100.00
35647;BME280;28680;45.642;13.756;2023-04-26T11:42:10;101193.63;;;23.56;100.00
35647;BME280;28680;45.642;13.756;2023-04-26T11:44:37;101190.78;;;23.36;100.00
35647;BME280;28680;45.642;13.756;2023-04-26T11:47:07;101190.50;;;23.52;100.00
35647;BME280;28680;45.642;13.756;2023-04-26T11:49:36;101181.13;;;23.91;100.00
35647;BME280;28680;45.642;13.756;2023-04-26T11:52:03;101186.84;;;23.60;100.00
35647;BME280;28680;45.642;13.756;2023-04-26T11:54:32;101182.00;;;23.77;100.00
35647;BME280;28680;45.642;13.756;2023-04-26T11:56:58;101178.19;;;23.86;100.00
35647;BME280;28680;45.642;13.756;2023-04-26T11:59:27;101183.00;;;23.69;100.00
35647;BME280;28680;45.642;13.756;2023-04-26T12:04:28;101181.25;;;23.83;100.00
35647;BME280;28680;45.642;13.756;2023-04-26T12:06:56;101180.63;;;23.81;100.00
35647;BME280;28680;45.642;13.756;2023-04-26T12:09:23;101186.16;;;23.51;100.00
35647;BME280;28680;45.642;13.756;2023-04-26T12:12:07;101178.25;;;23.65;100.00
35647;BME280;28680;45.642;13.756;2023-04-26T12:14:36;101175.44;;;23.80;100.00
35647;BME280;28680;45.642;13.756;2023-04-26T12:17:05;101174.59;;;24.07;100.00
35647;BME280;28680;45.642;13.756;2023-04-26T12:19:35;101173.50;;;23.95;100.00
35647;BME280;28680;45.642;13.756;2023-04-26T12:22:02;101169.28;;;23.79;100.00
35647;BME280;28680;45.642;13.756;2023-04-26T12:24:30;101163.59;;;23.96;100.00
35647;BME280;28680;45.642;13.756;2023-04-26T12:27:02;101166.72;;;24.06;100.00
35647;BME280;28680;45.642;13.756;2023-04-26T12:29:29;101159.66;;;23.91;100.00
35647;BME280;28680;45.642;13.756;2023-04-26T12:31:57;101162.81;;;24.02;100.00
35647;BME280;28680;45.642;13.756;2023-04-26T12:34:24;101163.16;;;24.40;100.00
35647;BME280;28680;45.642;13.756;2023-04-26T12:36:50;101166.84;;;24.26;100.00
35647;BME280;28680;45.642;13.756;2023-04-26T12:39:16;101172.41;;;24.24;100.00
35647;BME280;28680;45.642;13.756;2023-04-26T12:41:43;101163.91;;;24.21;100.00
35647;BME280;28680;45.642;13.756;2023-04-26T12:44:10;101159.69;;;23.98;100.00
35647;BME280;28680;45.642;13.756;2023-04-26T12:46:37;101164.53;;;23.53;100.00
35647;BME280;28680;45.642;13.756;2023-04-26T12:49:03;101164.41;;;23.89;100.00
35647;BME280;28680;45.642;13.756;2023-04-26T12:51:29;101153.22;;;24.27;100.00
35647;BME280;28680;45.642;13.756;2023-04-26T12:53:56;101163.97;;;24.27;100.00
35647;BME280;28680;45.642;13.756;2023-04-26T12:56:23;101158.31;;;24.16;100.00
35647;BME280;28680;45.642;13.756;2023-04-26T12:58:50;101165.94;;;24.12;100.00
35647;BME280;28680;45.642;13.756;2023-04-26T13:01:16;101169.03;;;24.16;100.00
35647;BME280;28680;45.642;13.756;2023-04-26T13:03:42;101170.09;;;24.69;100.00
35647;BME280;28680;45.642;13.756;2023-04-26T13:06:08;101158.97;;;25.06;100.00
35647;BME280;28680;45.642;13.756;2023-04-26T13:08:34;101161.47;;;24.94;100.00
35647;BME280;28680;45.642;13.756;2023-04-26T13:11:00;101158.97;;;25.06;100.00
35647;BME280;28680;45.642;13.756;2023-04-26T13:13:26;101162.69;;;24.85;100.00
35647;BME280;28680;45.642;13.756;2023-04-26T13:15:52;101164.75;;;24.83;100.00
35647;BME280;28680;45.642;13.756;2023-04-26T13:18:18;101157.28;;;24.58;100.00
35647;BME280;28680;45.642;13.756;2023-04-26T13:20:44;101163.97;;;24.34;100.00
35647;BME280;28680;45.642;13.756;2023-04-26T13:23:10;101163.53;;;24.24;100.00
35647;BME280;28680;45.642;13.756;2023-04-26T13:25:37;101161.16;;;24.01;100.00
35647;BME280;28680;45.642;13.756;2023-04-26T13:28:03;101163.38;;;24.39;100.00
35647;BME280;28680;45.642;13.756;2023-04-26T13:30:29;101161.53;;;24.46;100.00
35647;BME280;28680;45.642;13.756;2023-04-26T13:32:55;101154.47;;;24.31;100.00
35647;BME280;28680;45.642;13.756;2023-04-26T13:35:22;101160.84;;;23.82;100.00
35647;BME280;28680;45.642;13.756;2023-04-26T13:37:48;101159.94;;;24.10;100.00
35647;BME280;28680;45.642;13.756;2023-04-26T13:40:14;101164.47;;;24.03;100.00
35647;BME280;28680;45.642;13.756;2023-04-26T13:42:40;101166.38;;;24.16;100.00
35647;BME280;28680;45.642;13.756;2023-04-26T13:45:07;101166.03;;;23.84;100.00
35647;BME280;28680;45.642;13.756;2023-04-26T13:47:36;101165.84;;;23.64;100.00
35647;BME280;28680;45.642;13.756;2023-04-26T13:50:02;101166.00;;;23.27;100.00
35647;BME280;28680;45.642;13.756;2023-04-26T13:52:34;101161.81;;;23.46;100.00